Time;durP1;ratioP1;P1;durP2;ratioP2;P2;SDS_P1;SDS_P2;PMS_P1;PMS_P2;Temp;Humidity;BMP_temperature;BMP_pressure;BME280_temperature;BME280_humidity;BME280_pressure;Samples;Min_cycle;Max_cycle;Signal;HPM_P1;HPM_P2
2022/04/08 00:01:52;;;;;;;3.70;1.50;;;6.80;99.90;;;;;;5116822;28;20204;-80
2022/04/08 00:04:20;;;;;;;6.77;2.00;;;6.90;99.90;;;;;;5114888;28;20197;-81
2022/04/08 00:06:48;;;;;;;9.20;1.80;;;6.80;99.90;;;;;;5114591;28;20589;-81
2022/04/08 00:09:15;;;;;;;7.63;2.00;;;6.80;99.90;;;;;;5114835;28;20227;-79
2022/04/08 00:11:42;;;;;;;4.43;1.70;;;6.80;99.90;;;;;;5115864;28;20184;-79
2022/04/08 00:14:09;;;;;;;4.47;1.90;;;6.80;99.90;;;;;;5115891;28;20215;-81
2022/04/08 00:16:37;;;;;;;5.03;1.97;;;6.70;99.90;;;;;;5115872;28;20200;-80
2022/04/08 00:19:04;;;;;;;6.77;2.17;;;6.70;99.90;;;;;;5115628;28;20280;-80
2022/04/08 00:21:31;;;;;;;9.33;2.00;;;6.60;99.90;;;;;;5115583;28;20193;-87
2022/04/08 00:24:01;;;;;;;7.25;2.20;;;6.60;99.90;;;;;;5114643;28;20435;-85
2022/04/08 00:26:28;;;;;;;8.53;2.07;;;6.70;99.90;;;;;;5115112;28;20228;-81
2022/04/08 00:28:54;;;;;;;3.03;1.80;;;6.70;99.90;;;;;;5115257;27;20636;-80
2022/04/08 00:31:22;;;;;;;7.40;1.83;;;6.70;99.90;;;;;;5115276;28;20208;-79
2022/04/08 00:33:48;;;;;;;5.83;1.80;;;6.70;99.90;;;;;;5115747;28;20270;-82
2022/04/08 00:36:15;;;;;;;6.90;1.83;;;6.70;99.90;;;;;;5115116;28;20192;-80
2022/04/08 00:38:42;;;;;;;5.77;2.00;;;6.60;99.90;;;;;;5114633;28;20212;-81
2022/04/08 00:41:10;;;;;;;6.10;2.13;;;6.60;99.90;;;;;;5114472;28;20204;-82
2022/04/08 00:43:39;;;;;;;3.73;2.30;;;6.50;99.90;;;;;;5114516;28;20200;-80
2022/04/08 00:46:07;;;;;;;9.70;2.40;;;6.50;99.90;;;;;;5116184;28;20204;-78
2022/04/08 00:48:36;;;;;;;6.87;2.67;;;6.50;99.90;;;;;;5115382;28;20247;-79
2022/04/08 00:51:05;;;;;;;5.13;2.27;;;6.50;99.90;;;;;;5115727;28;20200;-80
2022/04/08 00:53:35;;;;;;;4.33;1.60;;;6.40;99.90;;;;;;5115721;28;20189;-84
2022/04/08 00:56:05;;;;;;;6.80;2.23;;;6.40;99.90;;;;;;5115540;28;20204;-80
2022/04/08 00:58:36;;;;;;;6.03;2.03;;;6.50;99.90;;;;;;5115530;28;20204;-84
2022/04/08 01:01:03;;;;;;;6.60;1.80;;;6.50;99.90;;;;;;5114889;28;20246;-84
2022/04/08 01:03:30;;;;;;;3.60;2.00;;;6.50;99.90;;;;;;5114084;28;20203;-84
2022/04/08 01:05:58;;;;;;;8.00;2.47;;;6.50;99.90;;;;;;5115114;28;20210;-81
2022/04/08 01:08:25;;;;;;;4.07;2.20;;;6.50;99.90;;;;;;5114817;28;20254;-83
2022/04/08 01:10:53;;;;;;;3.17;2.20;;;6.50;99.90;;;;;;5114268;27;20214;-81
2022/04/08 01:13:20;;;;;;;6.30;2.20;;;6.50;99.90;;;;;;5113782;28;20201;-80
2022/04/08 01:15:48;;;;;;;6.57;2.47;;;6.50;99.90;;;;;;5114037;28;20188;-83
2022/04/08 01:18:15;;;;;;;3.03;2.07;;;6.50;99.90;;;;;;5113758;28;20211;-81
2022/04/08 01:20:42;;;;;;;7.83;2.43;;;6.50;99.90;;;;;;5113855;27;20208;-81
2022/04/08 01:23:09;;;;;;;4.23;2.13;;;6.50;99.90;;;;;;5113472;28;20204;-86
2022/04/08 01:25:37;;;;;;;3.33;2.17;;;6.50;99.90;;;;;;5115237;28;20184;-83
2022/04/08 01:28:04;;;;;;;7.83;2.27;;;6.50;99.90;;;;;;5115480;27;20699;-81
2022/04/08 01:30:31;;;;;;;5.77;2.20;;;6.50;99.90;;;;;;5114545;28;20216;-82
2022/04/08 01:32:59;;;;;;;4.70;1.87;;;6.50;99.90;;;;;;5115171;28;20204;-81
2022/04/08 01:35:26;;;;;;;5.47;2.20;;;6.60;99.90;;;;;;5116438;27;20215;-80
2022/04/08 01:37:52;;;;;;;3.90;2.35;;;6.50;99.90;;;;;;5116368;27;20432;-81
2022/04/08 01:40:20;;;;;;;5.03;2.23;;;6.60;99.90;;;;;;5117628;27;20196;-83
2022/04/08 01:42:48;;;;;;;5.93;1.90;;;6.50;99.90;;;;;;5117961;27;20558;-82
2022/04/08 01:45:15;;;;;;;6.13;2.37;;;6.60;99.90;;;;;;5118357;28;20665;-81
2022/04/08 01:47:42;;;;;;;5.30;2.00;;;6.70;99.90;;;;;;5118758;28;20235;-81
2022/04/08 01:50:09;;;;;;;4.63;2.60;;;6.60;99.90;;;;;;5118254;28;20666;-81
2022/04/08 01:52:36;;;;;;;7.10;2.57;;;6.70;99.90;;;;;;5118458;28;20197;-82
2022/04/08 01:55:05;;;;;;;7.30;2.30;;;6.60;99.90;;;;;;5118917;28;20189;-81
2022/04/08 01:57:31;;;;;;;8.10;2.83;;;6.60;99.90;;;;;;5117962;28;20205;-78
2022/04/08 02:00:01;;;;;;;5.37;2.47;;;6.60;99.90;;;;;;5118619;28;20189;-80
2022/04/08 02:02:28;;;;;;;3.50;2.60;;;6.50;99.90;;;;;;5117777;27;20444;-83
2022/04/08 02:04:55;;;;;;;4.63;2.57;;;6.50;99.90;;;;;;5118970;27;20481;-83
2022/04/08 02:07:22;;;;;;;11.67;2.90;;;6.50;99.90;;;;;;5118034;28;20224;-81
2022/04/08 02:09:48;;;;;;;3.97;2.67;;;6.50;99.90;;;;;;5117141;28;20204;-80
2022/04/08 02:12:15;;;;;;;11.43;2.67;;;6.60;99.90;;;;;;5118039;28;20207;-80
2022/04/08 02:14:44;;;;;;;4.47;2.80;;;6.40;99.90;;;;;;5118478;27;20208;-82
2022/04/08 02:17:12;;;;;;;8.17;2.90;;;6.40;99.90;;;;;;5118316;27;20256;-78
2022/04/08 02:19:41;;;;;;;5.17;2.70;;;6.40;99.90;;;;;;5117519;28;20200;-80
2022/04/08 02:22:09;;;;;;;4.63;2.50;;;6.40;99.90;;;;;;5117102;28;20208;-83
2022/04/08 02:24:36;;;;;;;7.43;2.60;;;6.40;99.90;;;;;;5118162;28;20204;-79
2022/04/08 02:27:06;;;;;;;6.85;3.17;;;6.30;99.90;;;;;;5116408;27;20476;-81
2022/04/08 02:29:34;;;;;;;6.03;3.47;;;6.30;99.90;;;;;;5116428;28;20699;-85
2022/04/08 02:32:01;;;;;;;7.00;2.67;;;6.30;99.90;;;;;;5116312;28;20285;-81
2022/04/08 02:34:30;;;;;;;3.47;2.70;;;6.30;99.90;;;;;;5116446;28;20207;-82
2022/04/08 02:36:57;;;;;;;3.83;2.60;;;6.30;99.90;;;;;;5118520;27;20254;-80
2022/04/08 02:39:24;;;;;;;4.53;2.80;;;6.20;99.90;;;;;;5121621;27;20204;-80
2022/04/08 02:41:51;;;;;;;5.50;2.77;;;6.20;99.90;;;;;;5115870;28;20184;-80
2022/04/08 02:44:17;;;;;;;7.47;3.20;;;6.20;99.90;;;;;;5113872;28;20792;-79
2022/04/08 02:46:44;;;;;;;3.67;2.73;;;6.20;99.90;;;;;;5115138;27;20663;-80
2022/04/08 02:49:11;;;;;;;6.77;3.00;;;6.20;99.90;;;;;;5116259;28;20676;-80
2022/04/08 02:51:39;;;;;;;11.60;3.97;;;6.30;99.90;;;;;;5115639;28;20432;-81
2022/04/08 02:54:06;;;;;;;6.43;3.37;;;6.40;99.90;;;;;;5115906;28;20216;-77
2022/04/08 02:56:33;;;;;;;5.77;3.20;;;6.40;99.90;;;;;;5116218;27;20204;-82
2022/04/08 02:59:01;;;;;;;6.67;3.30;;;6.40;99.90;;;;;;5116872;28;20192;-83
2022/04/08 03:01:28;;;;;;;7.07;3.40;;;6.40;99.90;;;;;;5115794;28;20207;-80
2022/04/08 03:03:55;;;;;;;6.43;2.97;;;6.40;99.90;;;;;;5115856;28;20314;-79
2022/04/08 03:06:21;;;;;;;4.77;3.10;;;6.50;99.90;;;;;;5115119;28;20569;-83
2022/04/08 03:08:49;;;;;;;9.87;3.10;;;6.50;99.90;;;;;;5115595;28;20232;-79
2022/04/08 03:11:16;;;;;;;7.00;3.53;;;6.40;99.90;;;;;;5115380;28;20196;-79
2022/04/08 03:13:43;;;;;;;6.37;3.13;;;6.40;99.90;;;;;;5116584;28;20207;-78
2022/04/08 03:16:11;;;;;;;4.30;3.20;;;6.40;99.90;;;;;;5115877;28;20197;-83
2022/04/08 03:18:38;;;;;;;6.53;3.03;;;6.20;99.90;;;;;;5116103;28;20189;-82
2022/04/08 03:21:06;;;;;;;10.83;3.50;;;6.10;99.90;;;;;;5115228;27;20205;-82
2022/04/08 03:23:33;;;;;;;6.60;3.20;;;6.10;99.90;;;;;;5115300;28;20217;-78
2022/04/08 03:26:03;;;;;;;3.97;2.80;;;6.00;99.90;;;;;;5115076;28;20674;-82
2022/04/08 03:28:31;;;;;;;5.90;3.00;;;5.90;99.90;;;;;;5115436;28;20236;-78
2022/04/08 03:30:59;;;;;;;6.17;3.17;;;5.90;99.90;;;;;;5116171;28;20196;-81
2022/04/08 03:33:30;;;;;;;7.23;3.07;;;6.00;99.90;;;;;;5116368;28;20266;-83
2022/04/08 03:35:57;;;;;;;8.43;3.20;;;6.00;99.90;;;;;;5116677;28;20207;-81
2022/04/08 03:38:24;;;;;;;8.57;3.23;;;5.90;99.90;;;;;;5116806;28;20213;-79
2022/04/08 03:40:51;;;;;;;5.30;2.97;;;5.90;99.90;;;;;;5117032;28;20203;-77
2022/04/08 03:43:19;;;;;;;3.23;2.80;;;5.90;99.90;;;;;;5116566;28;20211;-78
2022/04/08 03:45:48;;;;;;;4.33;2.83;;;5.90;99.90;;;;;;5116645;28;20279;-78
2022/04/08 03:48:16;;;;;;;5.17;2.97;;;6.00;99.90;;;;;;5115496;27;20277;-79
2022/04/08 03:50:43;;;;;;;11.13;3.47;;;5.80;99.90;;;;;;5115748;28;20196;-80
2022/04/08 03:53:12;;;;;;;4.27;2.77;;;5.80;99.90;;;;;;5116095;28;20211;-80
2022/04/08 03:55:40;;;;;;;6.20;3.40;;;5.80;99.90;;;;;;5114881;28;20287;-81
2022/04/08 03:58:09;;;;;;;7.40;2.73;;;5.80;99.90;;;;;;5113891;28;20631;-80
2022/04/08 04:00:37;;;;;;;8.23;3.10;;;5.90;99.90;;;;;;5114634;27;20225;-80
2022/04/08 04:03:04;;;;;;;5.10;3.03;;;5.90;99.90;;;;;;5114077;28;20225;-83
2022/04/08 04:05:34;;;;;;;6.80;3.00;;;5.90;99.90;;;;;;5114473;27;20207;-80
2022/04/08 04:08:01;;;;;;;9.77;5.00;;;6.00;99.90;;;;;;5115983;28;20255;-84
2022/04/08 04:10:28;;;;;;;11.00;5.73;;;6.10;99.90;;;;;;5116608;28;20189;-79
2022/04/08 04:12:55;;;;;;;9.37;3.10;;;6.10;99.90;;;;;;5115164;28;20200;-80
2022/04/08 04:15:24;;;;;;;4.43;2.50;;;6.10;99.90;;;;;;5114430;28;20189;-80
2022/04/08 04:17:54;;;;;;;6.17;2.77;;;6.10;99.90;;;;;;5113793;28;20226;-82
2022/04/08 04:20:23;;;;;;;7.07;2.73;;;6.00;99.90;;;;;;5114585;28;20209;-82
2022/04/08 04:22:50;;;;;;;10.97;3.33;;;6.00;99.90;;;;;;5114411;28;20197;-80
2022/04/08 04:25:18;;;;;;;6.53;2.60;;;6.00;99.90;;;;;;5114415;28;20589;-85
2022/04/08 04:27:47;;;;;;;7.50;2.67;;;5.90;99.90;;;;;;5114350;28;20224;-83
2022/04/08 04:30:14;;;;;;;3.07;2.40;;;5.70;99.90;;;;;;5114979;28;20224;-86
2022/04/08 04:32:41;;;;;;;4.63;2.53;;;5.70;99.90;;;;;;5114393;28;20196;-84
2022/04/08 04:35:10;;;;;;;7.00;2.90;;;5.70;99.90;;;;;;5114830;27;20679;-80
2022/04/08 04:37:37;;;;;;;7.03;2.60;;;5.70;99.90;;;;;;5114714;28;20215;-82
2022/04/08 04:40:05;;;;;;;5.63;2.63;;;5.70;99.90;;;;;;5114804;27;20202;-81
2022/04/08 04:42:33;;;;;;;6.67;3.10;;;5.70;99.90;;;;;;5115731;28;20208;-86
2022/04/08 04:44:59;;;;;;;5.83;2.33;;;5.70;99.90;;;;;;5114877;28;20200;-82
2022/04/08 04:47:27;;;;;;;6.53;2.63;;;5.70;99.90;;;;;;5114828;28;20189;-84
2022/04/08 04:50:00;;;;;;;6.87;2.73;;;5.70;99.90;;;;;;5114843;28;20204;-86
2022/04/08 04:52:29;;;;;;;7.60;2.70;;;5.80;99.90;;;;;;5114896;27;20199;-87
2022/04/08 04:55:02;;;;;;;7.93;3.30;;;5.80;99.90;;;;;;5114347;27;20424;-84
2022/04/08 04:57:31;;;;;;;9.87;2.60;;;5.80;99.90;;;;;;5115499;28;20189;-83
2022/04/08 04:59:58;;;;;;;4.93;2.50;;;5.70;99.90;;;;;;5115929;27;20207;-80
2022/04/08 05:02:28;;;;;;;6.93;2.20;;;5.70;99.90;;;;;;5131764;27;20208;-87
2022/04/08 05:04:56;;;;;;;4.47;2.20;;;5.70;99.90;;;;;;5136446;27;20256;-86
2022/04/08 05:07:25;;;;;;;5.80;2.47;;;5.80;99.90;;;;;;5139316;27;20206;-86
2022/04/08 05:09:54;;;;;;;4.90;2.60;;;5.90;99.90;;;;;;5140892;27;20574;-86
2022/04/08 05:12:27;;;;;;;7.37;3.03;;;6.00;99.90;;;;;;5143759;27;20196;-83
2022/04/08 05:14:55;;;;;;;7.10;2.90;;;6.10;99.90;;;;;;5144592;27;20210;-86
2022/04/08 05:17:25;;;;;;;5.57;2.87;;;6.10;99.90;;;;;;5154359;27;20207;-86
2022/04/08 05:19:52;;;;;;;6.88;3.05;;;6.10;99.90;;;;;;5150083;27;20763;-82
2022/04/08 05:22:20;;;;;;;8.73;2.80;;;6.10;99.90;;;;;;5141339;27;20180;-84
2022/04/08 05:24:46;;;;;;;8.53;2.73;;;6.30;99.90;;;;;;5138424;27;20192;-83
2022/04/08 05:27:17;;;;;;;3.70;2.40;;;6.30;99.90;;;;;;5139125;27;20219;-85
2022/04/08 05:29:54;;;;;;;6.30;2.60;;;6.20;99.90;;;;;;5118399;28;20258;-86
2022/04/08 05:32:22;;;;;;;3.83;2.63;;;6.20;99.90;;;;;;5118604;28;20192;-84
2022/04/08 05:34:55;;;;;;;4.73;2.73;;;6.20;99.90;;;;;;5118912;28;20193;-86
2022/04/08 05:37:23;;;;;;;6.37;2.40;;;6.20;99.90;;;;;;5118742;28;20583;-87
2022/04/08 05:39:55;;;;;;;5.73;2.77;;;6.20;99.90;;;;;;5118761;27;20207;-84
2022/04/08 05:42:29;;;;;;;5.93;2.80;;;6.20;99.90;;;;;;5120176;28;20219;-87
2022/04/08 05:45:03;;;;;;;8.73;2.67;;;6.20;99.90;;;;;;5120100;28;20243;-86
2022/04/08 05:47:34;;;;;;;8.90;3.57;;;6.30;99.90;;;;;;5118975;27;20203;-85
2022/04/08 05:50:08;;;;;;;6.97;3.47;;;6.40;99.90;;;;;;5117895;27;20228;-87
2022/04/08 05:52:48;;;;;;;8.70;3.33;;;6.50;99.90;;;;;;5118207;28;20279;-86
2022/04/08 05:55:16;;;;;;;9.53;5.03;;;6.40;99.90;;;;;;5117826;28;20214;-85
2022/04/08 05:57:53;;;;;;;8.00;3.40;;;6.40;99.90;;;;;;5118115;28;20200;-87
2022/04/08 06:00:22;;;;;;;4.40;2.80;;;6.40;99.90;;;;;;5116401;28;20194;-87
2022/04/08 06:02:50;;;;;;;10.73;3.90;;;6.30;99.90;;;;;;5117469;28;20201;-87
2022/04/08 06:05:19;;;;;;;8.47;3.17;;;6.30;99.90;;;;;;5117520;27;20651;-81
2022/04/08 06:07:51;;;;;;;7.63;3.40;;;6.50;99.90;;;;;;5117307;28;20201;-86
2022/04/08 06:10:18;;;;;;;5.38;3.53;;;6.60;99.90;;;;;;5114735;27;21282;-78
2022/04/08 06:12:46;;;;;;;7.93;3.13;;;6.70;99.90;;;;;;5136773;27;20317;-80
2022/04/08 06:15:15;;;;;;;10.33;4.10;;;6.70;99.90;;;;;;5137157;27;20207;-80
2022/04/08 06:17:41;;;;;;;7.93;3.53;;;6.60;99.90;;;;;;5137020;27;20199;-81
2022/04/08 06:20:10;;;;;;;7.13;3.27;;;6.50;99.90;;;;;;5136743;27;20204;-80
2022/04/08 06:22:39;;;;;;;8.03;4.63;;;6.70;99.90;;;;;;5136486;27;20203;-80
2022/04/08 06:25:08;;;;;;;9.00;3.67;;;6.70;99.90;;;;;;5137915;27;20196;-78
2022/04/08 06:27:35;;;;;;;7.83;3.70;;;6.90;99.90;;;;;;5137555;27;20192;-81
2022/04/08 06:30:02;;;;;;;9.77;3.70;;;6.90;99.90;;;;;;5137140;27;20647;-81
2022/04/08 06:32:30;;;;;;;4.67;3.03;;;7.00;99.90;;;;;;5137062;27;20200;-84
2022/04/08 06:34:57;;;;;;;10.13;3.40;;;6.80;99.90;;;;;;5136998;27;20212;-81
2022/04/08 06:37:28;;;;;;;8.50;3.00;;;6.90;99.90;;;;;;5136556;27;20294;-79
2022/04/08 06:39:55;;;;;;;8.07;3.50;;;7.00;99.90;;;;;;5136628;27;20618;-82
2022/04/08 06:42:22;;;;;;;7.10;2.93;;;7.20;99.90;;;;;;5137122;27;20192;-85
2022/04/08 06:44:49;;;;;;;6.70;3.07;;;7.20;99.90;;;;;;5136445;27;20200;-85
2022/04/08 06:47:16;;;;;;;10.73;3.33;;;7.30;99.90;;;;;;5137022;27;20192;-78
2022/04/08 06:49:46;;;;;;;9.90;3.27;;;7.20;99.90;;;;;;5136245;27;20227;-83
2022/04/08 06:52:14;;;;;;;6.80;2.87;;;7.20;99.90;;;;;;5138285;27;20264;-85
2022/04/08 06:54:41;;;;;;;7.77;2.60;;;7.10;99.90;;;;;;5144070;27;20210;-80
2022/04/08 06:57:08;;;;;;;6.63;2.40;;;6.90;99.90;;;;;;5144206;27;20210;-87
2022/04/08 06:59:36;;;;;;;6.97;2.33;;;6.80;99.90;;;;;;5142741;27;20188;-85
2022/04/08 07:02:04;;;;;;;9.63;3.17;;;6.80;99.90;;;;;;5143957;27;20597;-79
2022/04/08 07:04:30;;;;;;;8.03;4.87;;;6.80;99.90;;;;;;5140415;27;20200;-82
2022/04/08 07:06:59;;;;;;;6.03;3.10;;;6.90;99.90;;;;;;5132793;27;20200;-81
2022/04/08 07:09:26;;;;;;;5.73;3.03;;;7.00;99.90;;;;;;5117075;28;20698;-86
2022/04/08 07:11:53;;;;;;;5.17;2.80;;;7.10;99.90;;;;;;5116893;27;20203;-78
2022/04/08 07:14:20;;;;;;;5.73;3.27;;;7.00;99.90;;;;;;5129788;27;20196;-86
2022/04/08 07:16:48;;;;;;;4.50;3.20;;;7.00;99.90;;;;;;5135989;27;20192;-92
2022/04/08 07:19:15;;;;;;;8.93;2.60;;;7.20;99.90;;;;;;5138532;27;20207;-89
2022/04/08 07:21:42;;;;;;;6.87;2.70;;;7.30;99.90;;;;;;5136380;27;20217;-90
2022/04/08 07:24:11;;;;;;;7.22;3.33;;;7.30;99.90;;;;;;5127446;27;20427;-84
2022/04/08 07:26:38;;;;;;;7.70;3.73;;;7.50;99.90;;;;;;5117049;27;20196;-86
2022/04/08 07:29:06;;;;;;;5.23;2.60;;;7.50;99.90;;;;;;5115095;27;20228;-82
2022/04/08 07:31:34;;;;;;;7.87;2.97;;;7.70;99.90;;;;;;5138021;27;20275;-87
2022/04/08 07:34:01;;;;;;;5.70;3.50;;;7.70;99.90;;;;;;5137499;27;20209;-88
2022/04/08 07:36:28;;;;;;;4.03;2.47;;;7.70;99.90;;;;;;5136605;27;20200;-79
2022/04/08 07:38:54;;;;;;;5.90;2.57;;;7.70;99.90;;;;;;5135591;27;20223;-78
2022/04/08 07:41:22;;;;;;;5.27;2.83;;;7.90;99.90;;;;;;5135235;27;20299;-92
2022/04/08 07:43:50;;;;;;;5.60;2.90;;;8.00;99.90;;;;;;5135291;27;20192;-92
2022/04/08 07:46:16;;;;;;;6.60;2.63;;;8.20;99.90;;;;;;5135266;27;20211;-77
2022/04/08 07:48:43;;;;;;;4.73;2.40;;;8.20;99.90;;;;;;5135104;27;20220;-76
2022/04/08 07:51:10;;;;;;;8.67;2.93;;;8.10;99.90;;;;;;5135335;27;20264;-83
2022/04/08 07:53:37;;;;;;;7.00;3.43;;;8.00;99.90;;;;;;5135700;27;20213;-89
2022/04/08 07:56:04;;;;;;;4.47;2.70;;;8.10;99.90;;;;;;5135009;27;20627;-93
2022/04/08 07:58:32;;;;;;;10.97;3.20;;;8.20;99.90;;;;;;5135427;27;20211;-80
2022/04/08 08:00:59;;;;;;;4.50;2.87;;;8.20;99.90;;;;;;5135514;27;20639;-78
2022/04/08 08:03:26;;;;;;;8.20;3.00;;;8.10;99.90;;;;;;5139733;27;20561;-84
2022/04/08 08:05:53;;;;;;;6.33;3.20;;;8.10;99.90;;;;;;5136257;27;20210;-91
2022/04/08 08:08:20;;;;;;;7.13;2.97;;;8.20;99.90;;;;;;5135813;27;20595;-77
2022/04/08 08:10:47;;;;;;;11.17;3.40;;;8.30;99.90;;;;;;5134937;27;20234;-79
2022/04/08 08:13:14;;;;;;;4.60;2.80;;;8.40;99.90;;;;;;5134847;27;20188;-91
2022/04/08 08:15:42;;;;;;;8.43;3.60;;;8.60;99.90;;;;;;5136128;27;20647;-90
2022/04/08 08:18:09;;;;;;;8.43;3.37;;;8.70;99.90;;;;;;5135333;27;20645;-77
2022/04/08 08:20:37;;;;;;;8.00;3.07;;;8.50;99.90;;;;;;5135795;27;20207;-84
2022/04/08 08:23:04;;;;;;;10.47;3.27;;;8.70;99.90;;;;;;5135656;27;20207;-88
2022/04/08 08:25:31;;;;;;;11.83;3.90;;;8.70;99.90;;;;;;5138328;27;20211;-79
2022/04/08 08:28:01;;;;;;;6.27;3.10;;;8.80;99.90;;;;;;5138749;27;20214;-87
2022/04/08 08:30:30;;;;;;;5.17;3.33;;;8.90;99.90;;;;;;5137362;27;20694;-80
2022/04/08 08:32:59;;;;;;;6.20;3.53;;;9.00;99.90;;;;;;5135535;27;20204;-77
2022/04/08 08:35:26;;;;;;;7.87;2.80;;;9.10;99.90;;;;;;5135178;27;20216;-78
2022/04/08 08:37:53;;;;;;;7.53;3.20;;;9.00;99.90;;;;;;5134600;27;20212;-80
2022/04/08 08:40:20;;;;;;;7.73;3.20;;;9.00;99.90;;;;;;5135003;27;20200;-92
2022/04/08 08:42:48;;;;;;;6.13;2.90;;;9.10;99.90;;;;;;5135026;27;20631;-77
2022/04/08 08:45:17;;;;;;;9.73;2.70;;;9.00;99.90;;;;;;5136486;27;20199;-90
2022/04/08 08:47:48;;;;;;;10.50;2.80;;;8.90;99.90;;;;;;5137348;27;20200;-91
2022/04/08 08:50:18;;;;;;;10.87;2.90;;;9.10;99.90;;;;;;5135371;27;20284;-92
2022/04/08 08:52:49;;;;;;;6.53;3.10;;;9.10;99.90;;;;;;5135213;27;20646;-78
2022/04/08 08:55:15;;;;;;;7.93;3.57;;;9.00;99.90;;;;;;5135682;27;20196;-87
2022/04/08 08:57:42;;;;;;;6.97;3.00;;;9.00;99.90;;;;;;5136000;27;20206;-91
2022/04/08 09:00:12;;;;;;;8.00;3.10;;;9.10;99.90;;;;;;5135517;27;20549;-78
2022/04/08 09:02:39;;;;;;;10.82;3.80;;;8.90;99.90;;;;;;5134452;27;20419;-89
2022/04/08 09:05:18;;;;;;;9.17;3.90;;;9.10;99.90;;;;;;5135389;27;20210;-78
2022/04/08 09:07:54;;;;;;;9.37;3.10;;;9.20;99.90;;;;;;5135420;27;20199;-77
2022/04/08 09:10:25;;;;;;;8.70;2.80;;;9.00;99.90;;;;;;5134936;27;20705;-90
2022/04/08 09:12:54;;;;;;;8.33;2.37;;;8.70;99.90;;;;;;5136621;27;20188;-84
2022/04/08 09:15:21;;;;;;;6.20;2.90;;;8.50;99.90;;;;;;5136417;27;20654;-77
2022/04/08 09:17:48;;;;;;;8.67;2.60;;;8.40;99.90;;;;;;5138981;27;20651;-77
2022/04/08 09:20:16;;;;;;;12.37;3.30;;;8.30;99.90;;;;;;5141536;27;20204;-90
2022/04/08 09:22:44;;;;;;;8.67;4.60;;;8.40;99.90;;;;;;5141854;27;20199;-76
2022/04/08 09:25:12;;;;;;;6.93;2.43;;;8.50;99.90;;;;;;5139869;27;20196;-90
2022/04/08 09:27:39;;;;;;;10.67;3.30;;;8.50;99.90;;;;;;5138522;27;20423;-77
2022/04/08 09:30:08;;;;;;;6.10;2.50;;;8.60;99.90;;;;;;5136430;27;20480;-77
2022/04/08 09:32:35;;;;;;;4.43;2.13;;;8.70;99.90;;;;;;5135799;27;20200;-92
2022/04/08 09:35:03;;;;;;;10.33;2.50;;;8.80;99.90;;;;;;5135080;27;20639;-94
2022/04/08 09:37:31;;;;;;;8.23;2.47;;;9.00;99.90;;;;;;5135862;27;20214;-79
2022/04/08 09:39:59;;;;;;;7.70;2.83;;;8.90;99.90;;;;;;5135179;27;20310;-81
2022/04/08 09:42:42;;;;;;;6.93;2.33;;;8.80;99.90;;;;;;5136332;27;20275;-82
2022/04/08 09:45:10;;;;;;;3.60;2.10;;;8.90;99.90;;;;;;5135199;27;20636;-77
2022/04/08 09:47:37;;;;;;;6.67;2.10;;;8.90;99.90;;;;;;5135845;27;20203;-77
2022/04/08 09:50:04;;;;;;;5.07;1.93;;;8.90;99.90;;;;;;5135288;27;20273;-81
2022/04/08 09:52:33;;;;;;;5.47;2.50;;;8.80;99.90;;;;;;5135893;27;20491;-88
2022/04/08 09:55:03;;;;;;;7.07;2.30;;;8.90;99.90;;;;;;5135898;27;20657;-77
2022/04/08 09:57:37;;;;;;;6.37;2.30;;;8.90;99.90;;;;;;5138374;27;20627;-84
2022/04/08 10:00:06;;;;;;;13.10;2.67;;;8.80;99.90;;;;;;5138781;27;20200;-79
2022/04/08 10:02:36;;;;;;;5.90;2.13;;;9.00;99.90;;;;;;5140122;27;20214;-86
2022/04/08 10:05:03;;;;;;;6.50;2.20;;;9.00;99.90;;;;;;5140461;27;20398;-85
2022/04/08 10:07:31;;;;;;;2.93;1.90;;;9.20;99.90;;;;;;5139882;27;20206;-80
2022/04/08 10:10:05;;;;;;;7.63;2.23;;;9.20;99.90;;;;;;5138217;27;20599;-86
2022/04/08 10:12:39;;;;;;;4.50;2.03;;;9.20;99.90;;;;;;5137925;27;20199;-92
2022/04/08 10:15:11;;;;;;;8.73;2.20;;;9.30;99.90;;;;;;5138484;27;20207;-81
2022/04/08 10:17:37;;;;;;;12.57;3.00;;;9.70;99.90;;;;;;5137870;27;20261;-79
2022/04/08 10:20:18;;;;;;;8.07;3.10;;;9.60;99.90;;;;;;5138689;27;20677;-94
2022/04/08 10:22:45;;;;;;;4.73;1.90;;;9.60;99.90;;;;;;5138193;27;20188;-77
2022/04/08 10:25:18;;;;;;;8.17;2.27;;;9.80;99.90;;;;;;5138389;27;20203;-93
2022/04/08 10:27:45;;;;;;;5.50;2.30;;;9.90;99.90;;;;;;5138674;27;20200;-92
2022/04/08 10:30:14;;;;;;;6.30;2.03;;;9.80;99.90;;;;;;5138863;27;20569;-79
2022/04/08 10:32:43;;;;;;;6.27;2.07;;;9.80;99.90;;;;;;5139071;27;20222;-79
2022/04/08 10:35:18;;;;;;;4.83;2.00;;;10.10;99.90;;;;;;5138866;27;20658;-79
2022/04/08 10:37:56;;;;;;;6.47;1.80;;;10.30;99.90;;;;;;5138545;27;20208;-86
2022/04/08 10:40:30;;;;;;;5.27;2.00;;;10.30;99.90;;;;;;5132435;27;20187;-79
2022/04/08 10:42:59;;;;;;;5.10;2.40;;;10.10;99.90;;;;;;5115007;28;20226;-78
2022/04/08 10:45:26;;;;;;;8.80;2.30;;;9.70;99.90;;;;;;5115215;28;20193;-81
2022/04/08 10:47:53;;;;;;;5.07;2.03;;;9.50;99.90;;;;;;5115786;28;20204;-80
2022/04/08 10:50:27;;;;;;;7.00;2.13;;;9.30;99.90;;;;;;5116190;28;20243;-80
2022/04/08 10:53:08;;;;;;;5.87;1.40;;;9.40;99.90;;;;;;5126396;27;20220;-76
2022/04/08 10:55:50;;;;;;;5.73;2.10;;;9.40;99.90;;;;;;5120574;27;20188;-77
2022/04/08 10:58:30;;;;;;;4.17;2.30;;;9.60;99.90;;;;;;5135530;27;20200;-75
2022/04/08 11:00:57;;;;;;;8.80;2.10;;;9.60;99.90;;;;;;5132238;27;20211;-76
2022/04/08 11:03:28;;;;;;;7.90;2.30;;;9.80;99.90;;;;;;5135962;27;20212;-75
2022/04/08 11:05:55;;;;;;;2.87;1.83;;;10.10;99.90;;;;;;5135765;27;20615;-75
2022/04/08 11:08:24;;;;;;;4.63;2.30;;;10.10;99.90;;;;;;5125450;27;20196;-75
2022/04/08 11:10:58;;;;;;;6.13;2.20;;;10.20;99.90;;;;;;5125255;27;20265;-76
2022/04/08 11:13:25;;;;;;;7.87;3.00;;;10.50;99.90;;;;;;5115149;27;20259;-76
2022/04/08 11:15:51;;;;;;;7.00;2.03;;;10.40;99.90;;;;;;5113153;27;20250;-78
2022/04/08 11:18:19;;;;;;;8.33;2.00;;;10.30;99.90;;;;;;5114605;28;20204;-81
2022/04/08 11:20:48;;;;;;;4.67;2.27;;;10.30;99.90;;;;;;5115462;28;20249;-80
2022/04/08 11:23:15;;;;;;;6.73;2.37;;;10.30;99.90;;;;;;5115407;28;20204;-79
2022/04/08 11:25:42;;;;;;;5.17;2.40;;;10.10;99.90;;;;;;5114910;28;20212;-77
2022/04/08 11:28:12;;;;;;;6.87;2.57;;;10.00;99.90;;;;;;5114571;28;20212;-79
2022/04/08 11:30:40;;;;;;;8.33;2.97;;;10.10;99.90;;;;;;5114495;28;20243;-78
2022/04/08 11:33:14;;;;;;;6.90;2.53;;;10.00;99.90;;;;;;5114607;28;20567;-77
2022/04/08 11:35:41;;;;;;;7.60;2.23;;;9.90;99.90;;;;;;5114795;28;20189;-78
2022/04/08 11:38:13;;;;;;;4.70;2.20;;;10.20;99.90;;;;;;5114352;28;20208;-79
2022/04/08 11:40:40;;;;;;;7.83;2.33;;;10.40;99.90;;;;;;5114692;28;20207;-75
2022/04/08 11:43:07;;;;;;;7.27;2.37;;;9.90;99.90;;;;;;5114784;28;20195;-76
2022/04/08 11:45:35;;;;;;;5.70;2.17;;;10.10;99.90;;;;;;5114555;28;20207;-77
2022/04/08 11:48:02;;;;;;;6.70;2.63;;;9.90;99.90;;;;;;5114421;28;20200;-78
2022/04/08 11:50:29;;;;;;;6.00;2.60;;;9.70;99.90;;;;;;5114300;28;20228;-77
2022/04/08 11:52:58;;;;;;;5.13;2.65;;;9.70;99.90;;;;;;5113636;28;20443;-79
2022/04/08 11:55:26;;;;;;;6.03;2.63;;;9.70;99.90;;;;;;5114369;28;20204;-79
2022/04/08 11:57:53;;;;;;;7.73;2.80;;;9.90;99.90;;;;;;5114094;28;20282;-76
2022/04/08 12:00:30;;;;;;;7.40;2.17;;;10.10;99.90;;;;;;5114010;28;20212;-78
2022/04/08 12:02:59;;;;;;;5.23;2.10;;;10.10;99.90;;;;;;5113385;28;20578;-75
2022/04/08 12:05:29;;;;;;;6.63;2.23;;;10.10;99.90;;;;;;5114055;28;20189;-76
2022/04/08 12:07:59;;;;;;;5.10;1.80;;;10.10;99.90;;;;;;5113195;28;20215;-75
2022/04/08 12:10:26;;;;;;;7.30;2.93;;;10.10;99.90;;;;;;5113190;28;20225;-78
2022/04/08 12:12:54;;;;;;;6.80;1.90;;;10.40;99.90;;;;;;5113389;28;20195;-75
2022/04/08 12:15:22;;;;;;;5.67;2.63;;;10.60;99.90;;;;;;5118749;27;20320;-76
2022/04/08 12:17:50;;;;;;;5.22;2.38;;;10.60;99.90;;;;;;5112326;27;20886;-79
2022/04/08 12:20:20;;;;;;;4.53;2.00;;;10.70;99.90;;;;;;5112316;28;20202;-79
2022/04/08 12:22:49;;;;;;;6.70;1.93;;;10.80;99.90;;;;;;5112888;27;20564;-75
2022/04/08 12:25:17;;;;;;;4.23;1.60;;;10.90;99.90;;;;;;5113996;28;20202;-76
2022/04/08 12:27:44;;;;;;;4.93;2.03;;;10.90;99.90;;;;;;5113775;28;20236;-77
2022/04/08 12:30:11;;;;;;;6.07;1.90;;;11.20;99.90;;;;;;5113063;28;20256;-78
2022/04/08 12:32:39;;;;;;;4.77;2.07;;;11.40;99.90;;;;;;5113498;28;20206;-78
2022/04/08 12:35:08;;;;;;;5.23;2.00;;;11.30;99.90;;;;;;5113124;28;20201;-78
2022/04/08 12:37:37;;;;;;;3.40;1.80;;;10.80;99.90;;;;;;5113184;28;20694;-77
2022/04/08 12:40:06;;;;;;;6.73;2.63;;;10.70;99.90;;;;;;5113683;28;20292;-79
2022/04/08 12:42:35;;;;;;;7.13;2.57;;;10.80;99.90;;;;;;5112998;28;20212;-76
2022/04/08 12:45:02;;;;;;;5.03;2.33;;;10.60;99.90;;;;;;5113391;28;20249;-79
2022/04/08 12:47:29;;;;;;;5.73;2.10;;;10.50;99.90;;;;;;5113692;28;20196;-75
2022/04/08 12:49:56;;;;;;;5.23;2.30;;;10.40;99.90;;;;;;5113190;28;20616;-78
2022/04/08 12:52:23;;;;;;;3.40;2.13;;;10.50;99.90;;;;;;5123479;28;20200;-75
2022/04/08 12:54:51;;;;;;;5.40;2.20;;;10.30;99.90;;;;;;5134046;27;20203;-75
2022/04/08 12:57:20;;;;;;;5.67;2.10;;;10.50;99.90;;;;;;5133936;27;20211;-77
2022/04/08 12:59:47;;;;;;;6.03;2.40;;;10.50;99.90;;;;;;5133868;27;20207;-75
2022/04/08 13:02:15;;;;;;;5.60;2.00;;;10.00;99.90;;;;;;5133773;27;20242;-78